sensor_id;sensor_type;location;lat;lon;timestamp;temperature;humidity
2130;DHT22;1071;52.544;13.374;2023-04-07T00:00:42;9.20;66.80
2130;DHT22;1071;52.544;13.374;2023-04-07T00:03:35;9.20;67.00
2130;DHT22;1071;52.544;13.374;2023-04-07T00:06:05;9.20;66.90
2130;DHT22;1071;52.544;13.374;2023-04-07T00:08:35;9.10;66.70
2130;DHT22;1071;52.544;13.374;2023-04-07T00:11:02;9.10;66.60
2130;DHT22;1071;52.544;13.374;2023-04-07T00:13:29;9.10;66.40
2130;DHT22;1071;52.544;13.374;2023-04-07T00:15:56;9.10;66.10
2130;DHT22;1071;52.544;13.374;2023-04-07T00:18:23;9.10;66.30
2130;DHT22;1071;52.544;13.374;2023-04-07T00:20:54;9.10;66.00
2130;DHT22;1071;52.544;13.374;2023-04-07T00:23:24;9.00;65.90
2130;DHT22;1071;52.544;13.374;2023-04-07T00:25:51;9.00;66.20
2130;DHT22;1071;52.544;13.374;2023-04-07T00:28:19;9.00;66.30
2130;DHT22;1071;52.544;13.374;2023-04-07T00:30:46;9.00;66.20
2130;DHT22;1071;52.544;13.374;2023-04-07T00:33:16;8.90;66.00
2130;DHT22;1071;52.544;13.374;2023-04-07T00:35:43;8.90;66.00
2130;DHT22;1071;52.544;13.374;2023-04-07T00:38:12;8.90;66.00
2130;DHT22;1071;52.544;13.374;2023-04-07T00:40:40;8.80;65.60
2130;DHT22;1071;52.544;13.374;2023-04-07T00:43:10;8.80;65.90
2130;DHT22;1071;52.544;13.374;2023-04-07T00:45:39;8.80;65.80
2130;DHT22;1071;52.544;13.374;2023-04-07T00:48:09;8.80;66.00
2130;DHT22;1071;52.544;13.374;2023-04-07T00:50:36;8.80;66.40
2130;DHT22;1071;52.544;13.374;2023-04-07T00:53:04;8.70;66.60
2130;DHT22;1071;52.544;13.374;2023-04-07T00:55:33;8.70;66.90
2130;DHT22;1071;52.544;13.374;2023-04-07T00:58:18;8.70;67.10
2130;DHT22;1071;52.544;13.374;2023-04-07T01:00:49;8.70;67.20
2130;DHT22;1071;52.544;13.374;2023-04-07T01:03:19;8.70;67.30
2130;DHT22;1071;52.544;13.374;2023-04-07T01:05:53;8.60;67.90
2130;DHT22;1071;52.544;13.374;2023-04-07T01:08:25;8.60;67.50
2130;DHT22;1071;52.544;13.374;2023-04-07T01:11:04;8.60;67.10
2130;DHT22;1071;52.544;13.374;2023-04-07T01:13:36;8.50;68.00
2130;DHT22;1071;52.544;13.374;2023-04-07T01:16:11;8.40;67.90
2130;DHT22;1071;52.544;13.374;2023-04-07T01:18:39;8.40;67.60
2130;DHT22;1071;52.544;13.374;2023-04-07T01:21:10;8.40;67.80
2130;DHT22;1071;52.544;13.374;2023-04-07T01:23:58;8.40;68.00
2130;DHT22;1071;52.544;13.374;2023-04-07T01:26:29;8.40;67.80
2130;DHT22;1071;52.544;13.374;2023-04-07T01:29:26;8.40;67.50
2130;DHT22;1071;52.544;13.374;2023-04-07T01:32:01;8.40;67.50
2130;DHT22;1071;52.544;13.374;2023-04-07T01:34:33;8.30;67.90
2130;DHT22;1071;52.544;13.374;2023-04-07T01:37:01;8.30;68.00
2130;DHT22;1071;52.544;13.374;2023-04-07T01:39:29;8.30;68.40
2130;DHT22;1071;52.544;13.374;2023-04-07T01:41:57;8.30;68.30
2130;DHT22;1071;52.544;13.374;2023-04-07T01:44:30;8.20;68.50
2130;DHT22;1071;52.544;13.374;2023-04-07T01:46:58;8.20;68.30
2130;DHT22;1071;52.544;13.374;2023-04-07T01:49:26;8.20;68.50
2130;DHT22;1071;52.544;13.374;2023-04-07T01:52:25;8.20;68.50
2130;DHT22;1071;52.544;13.374;2023-04-07T01:54:53;8.10;68.70
2130;DHT22;1071;52.544;13.374;2023-04-07T01:57:22;8.10;68.70
2130;DHT22;1071;52.544;13.374;2023-04-07T01:59:50;8.10;68.80
2130;DHT22;1071;52.544;13.374;2023-04-07T02:02:18;8.10;68.90
2130;DHT22;1071;52.544;13.374;2023-04-07T02:04:50;8.10;68.80
2130;DHT22;1071;52.544;13.374;2023-04-07T02:07:21;8.10;69.00
2130;DHT22;1071;52.544;13.374;2023-04-07T02:09:51;8.10;69.20
2130;DHT22;1071;52.544;13.374;2023-04-07T02:12:23;8.10;69.50
2130;DHT22;1071;52.544;13.374;2023-04-07T02:14:53;8.10;69.80
2130;DHT22;1071;52.544;13.374;2023-04-07T02:17:27;8.00;70.00
2130;DHT22;1071;52.544;13.374;2023-04-07T02:19:57;8.00;69.90
2130;DHT22;1071;52.544;13.374;2023-04-07T02:22:25;7.90;69.80
2130;DHT22;1071;52.544;13.374;2023-04-07T02:24:52;8.00;69.90
2130;DHT22;1071;52.544;13.374;2023-04-07T02:27:20;7.90;70.20
2130;DHT22;1071;52.544;13.374;2023-04-07T02:29:47;7.90;70.30
2130;DHT22;1071;52.544;13.374;2023-04-07T02:32:15;7.90;70.40
2130;DHT22;1071;52.544;13.374;2023-04-07T02:34:43;7.80;70.40
2130;DHT22;1071;52.544;13.374;2023-04-07T02:37:11;7.80;70.20
2130;DHT22;1071;52.544;13.374;2023-04-07T02:39:38;7.80;70.40
2130;DHT22;1071;52.544;13.374;2023-04-07T02:42:05;7.80;70.40
2130;DHT22;1071;52.544;13.374;2023-04-07T02:44:35;7.80;70.40
2130;DHT22;1071;52.544;13.374;2023-04-07T02:47:24;7.80;70.80
2130;DHT22;1071;52.544;13.374;2023-04-07T02:49:52;7.70;70.70
2130;DHT22;1071;52.544;13.374;2023-04-07T02:52:19;7.70;70.80
2130;DHT22;1071;52.544;13.374;2023-04-07T02:54:46;7.70;70.70
2130;DHT22;1071;52.544;13.374;2023-04-07T02:57:13;7.70;70.80
2130;DHT22;1071;52.544;13.374;2023-04-07T02:59:40;7.60;70.80
2130;DHT22;1071;52.544;13.374;2023-04-07T03:02:07;7.70;70.90
2130;DHT22;1071;52.544;13.374;2023-04-07T03:04:35;7.60;70.80
2130;DHT22;1071;52.544;13.374;2023-04-07T03:07:03;7.60;71.20
2130;DHT22;1071;52.544;13.374;2023-04-07T03:09:32;7.60;71.50
2130;DHT22;1071;52.544;13.374;2023-04-07T03:11:59;7.60;71.90
2130;DHT22;1071;52.544;13.374;2023-04-07T03:14:29;7.60;72.00
2130;DHT22;1071;52.544;13.374;2023-04-07T03:16:59;7.50;72.00
2130;DHT22;1071;52.544;13.374;2023-04-07T03:19:26;7.60;71.60
2130;DHT22;1071;52.544;13.374;2023-04-07T03:21:54;7.60;71.60
2130;DHT22;1071;52.544;13.374;2023-04-07T03:24:21;7.60;71.50
2130;DHT22;1071;52.544;13.374;2023-04-07T03:26:49;7.60;71.60
2130;DHT22;1071;52.544;13.374;2023-04-07T03:29:16;7.50;72.00
2130;DHT22;1071;52.544;13.374;2023-04-07T03:31:43;7.50;72.00
2130;DHT22;1071;52.544;13.374;2023-04-07T03:34:12;7.50;71.90
2130;DHT22;1071;52.544;13.374;2023-04-07T03:36:39;7.50;72.30
2130;DHT22;1071;52.544;13.374;2023-04-07T03:39:08;7.50;72.30
2130;DHT22;1071;52.544;13.374;2023-04-07T03:42:03;7.50;72.30
2130;DHT22;1071;52.544;13.374;2023-04-07T03:44:30;7.50;72.40
2130;DHT22;1071;52.544;13.374;2023-04-07T03:46:58;7.50;72.70
2130;DHT22;1071;52.544;13.374;2023-04-07T03:49:25;7.50;72.90
2130;DHT22;1071;52.544;13.374;2023-04-07T03:51:52;7.40;73.10
2130;DHT22;1071;52.544;13.374;2023-04-07T03:54:22;7.50;73.40
2130;DHT22;1071;52.544;13.374;2023-04-07T03:56:49;7.40;73.40
2130;DHT22;1071;52.544;13.374;2023-04-07T03:59:18;7.40;73.60
2130;DHT22;1071;52.544;13.374;2023-04-07T04:01:49;7.40;73.60
2130;DHT22;1071;52.544;13.374;2023-04-07T04:04:16;7.40;73.70
2130;DHT22;1071;52.544;13.374;2023-04-07T04:06:48;7.40;73.70
2130;DHT22;1071;52.544;13.374;2023-04-07T04:09:37;7.30;74.00
2130;DHT22;1071;52.544;13.374;2023-04-07T04:12:06;7.30;74.10
2130;DHT22;1071;52.544;13.374;2023-04-07T04:14:33;7.30;74.70
2130;DHT22;1071;52.544;13.374;2023-04-07T04:17:01;7.20;75.00
2130;DHT22;1071;52.544;13.374;2023-04-07T04:19:33;7.20;75.10
2130;DHT22;1071;52.544;13.374;2023-04-07T04:22:00;7.20;75.50
2130;DHT22;1071;52.544;13.374;2023-04-07T04:24:28;7.20;75.90
2130;DHT22;1071;52.544;13.374;2023-04-07T04:26:56;7.20;75.60
2130;DHT22;1071;52.544;13.374;2023-04-07T04:29:23;7.20;76.00
2130;DHT22;1071;52.544;13.374;2023-04-07T04:31:50;7.10;76.00
2130;DHT22;1071;52.544;13.374;2023-04-07T04:34:17;7.10;76.30
2130;DHT22;1071;52.544;13.374;2023-04-07T04:36:58;7.10;76.40
2130;DHT22;1071;52.544;13.374;2023-04-07T04:39:25;7.10;76.60
2130;DHT22;1071;52.544;13.374;2023-04-07T04:42:00;7.10;76.70
2130;DHT22;1071;52.544;13.374;2023-04-07T04:44:30;7.10;76.70
2130;DHT22;1071;52.544;13.374;2023-04-07T04:46:57;7.10;76.90
2130;DHT22;1071;52.544;13.374;2023-04-07T04:49:24;7.10;77.00
2130;DHT22;1071;52.544;13.374;2023-04-07T04:51:51;7.10;77.30
2130;DHT22;1071;52.544;13.374;2023-04-07T04:54:19;7.10;77.30
2130;DHT22;1071;52.544;13.374;2023-04-07T04:56:46;7.10;77.60
2130;DHT22;1071;52.544;13.374;2023-04-07T04:59:13;7.00;77.80
2130;DHT22;1071;52.544;13.374;2023-04-07T05:01:41;7.00;78.40
2130;DHT22;1071;52.544;13.374;2023-04-07T05:04:09;7.00;78.30
2130;DHT22;1071;52.544;13.374;2023-04-07T05:06:36;7.00;78.40
2130;DHT22;1071;52.544;13.374;2023-04-07T05:09:04;7.00;78.50
2130;DHT22;1071;52.544;13.374;2023-04-07T05:11:31;6.90;78.60
2130;DHT22;1071;52.544;13.374;2023-04-07T05:14:02;7.00;78.60
2130;DHT22;1071;52.544;13.374;2023-04-07T05:16:29;7.00;78.60
2130;DHT22;1071;52.544;13.374;2023-04-07T05:18:57;6.90;78.80
2130;DHT22;1071;52.544;13.374;2023-04-07T05:21:25;7.00;78.90
2130;DHT22;1071;52.544;13.374;2023-04-07T05:23:52;7.00;79.00
2130;DHT22;1071;52.544;13.374;2023-04-07T05:26:19;7.00;79.00
2130;DHT22;1071;52.544;13.374;2023-04-07T05:28:47;7.10;78.90
2130;DHT22;1071;52.544;13.374;2023-04-07T05:31:40;7.10;78.90
2130;DHT22;1071;52.544;13.374;2023-04-07T05:34:12;7.10;78.70
2130;DHT22;1071;52.544;13.374;2023-04-07T05:36:40;7.10;78.70
2130;DHT22;1071;52.544;13.374;2023-04-07T05:39:07;7.20;78.90
2130;DHT22;1071;52.544;13.374;2023-04-07T05:41:34;7.20;78.90
2130;DHT22;1071;52.544;13.374;2023-04-07T05:44:02;7.20;78.90
2130;DHT22;1071;52.544;13.374;2023-04-07T05:46:30;7.20;79.10
2130;DHT22;1071;52.544;13.374;2023-04-07T05:48:57;7.30;79.30
2130;DHT22;1071;52.544;13.374;2023-04-07T05:51:26;7.30;79.40
2130;DHT22;1071;52.544;13.374;2023-04-07T05:53:53;7.30;79.50
2130;DHT22;1071;52.544;13.374;2023-04-07T05:56:22;7.40;79.50
2130;DHT22;1071;52.544;13.374;2023-04-07T05:58:49;7.40;79.60
2130;DHT22;1071;52.544;13.374;2023-04-07T06:01:18;7.40;79.70
2130;DHT22;1071;52.544;13.374;2023-04-07T06:03:45;7.50;79.60
2130;DHT22;1071;52.544;13.374;2023-04-07T06:06:27;7.40;79.30
2130;DHT22;1071;52.544;13.374;2023-04-07T06:08:56;7.40;79.80
2130;DHT22;1071;52.544;13.374;2023-04-07T06:11:23;7.40;80.00
2130;DHT22;1071;52.544;13.374;2023-04-07T06:13:50;7.30;80.30
2130;DHT22;1071;52.544;13.374;2023-04-07T06:16:17;7.40;80.40
2130;DHT22;1071;52.544;13.374;2023-04-07T06:18:44;7.40;80.50
2130;DHT22;1071;52.544;13.374;2023-04-07T06:21:11;7.40;80.70
2130;DHT22;1071;52.544;13.374;2023-04-07T06:23:40;7.40;80.70
2130;DHT22;1071;52.544;13.374;2023-04-07T06:26:30;7.40;81.00
2130;DHT22;1071;52.544;13.374;2023-04-07T06:28:57;7.40;81.10
2130;DHT22;1071;52.544;13.374;2023-04-07T06:31:24;7.50;81.20
2130;DHT22;1071;52.544;13.374;2023-04-07T06:33:51;7.50;81.30
2130;DHT22;1071;52.544;13.374;2023-04-07T06:36:19;7.60;81.30
2130;DHT22;1071;52.544;13.374;2023-04-07T06:38:49;7.60;81.30
2130;DHT22;1071;52.544;13.374;2023-04-07T06:41:16;7.70;81.30
2130;DHT22;1071;52.544;13.374;2023-04-07T06:43:45;7.70;81.40
2130;DHT22;1071;52.544;13.374;2023-04-07T06:46:12;7.80;81.60
2130;DHT22;1071;52.544;13.374;2023-04-07T06:48:40;7.80;81.70
2130;DHT22;1071;52.544;13.374;2023-04-07T06:51:11;7.80;81.60
2130;DHT22;1071;52.544;13.374;2023-04-07T06:53:38;7.90;81.80
2130;DHT22;1071;52.544;13.374;2023-04-07T06:56:11;7.90;81.80
2130;DHT22;1071;52.544;13.374;2023-04-07T06:58:38;8.00;81.70
2130;DHT22;1071;52.544;13.374;2023-04-07T07:01:05;8.00;81.80
2130;DHT22;1071;52.544;13.374;2023-04-07T07:03:33;8.10;81.80
2130;DHT22;1071;52.544;13.374;2023-04-07T07:06:00;8.10;82.20
2130;DHT22;1071;52.544;13.374;2023-04-07T07:08:28;8.10;82.20
2130;DHT22;1071;52.544;13.374;2023-04-07T07:10:58;8.10;82.30
2130;DHT22;1071;52.544;13.374;2023-04-07T07:13:27;8.20;82.40
2130;DHT22;1071;52.544;13.374;2023-04-07T07:15:54;8.20;82.40
2130;DHT22;1071;52.544;13.374;2023-04-07T07:18:22;8.30;82.50
2130;DHT22;1071;52.544;13.374;2023-04-07T07:21:02;8.30;82.50
2130;DHT22;1071;52.544;13.374;2023-04-07T07:23:29;8.40;81.90
2130;DHT22;1071;52.544;13.374;2023-04-07T07:25:58;8.40;81.70
2130;DHT22;1071;52.544;13.374;2023-04-07T07:28:26;8.50;81.50
2130;DHT22;1071;52.544;13.374;2023-04-07T07:30:54;8.50;81.20
2130;DHT22;1071;52.544;13.374;2023-04-07T07:33:21;8.60;80.10
2130;DHT22;1071;52.544;13.374;2023-04-07T07:35:51;8.60;79.00
2130;DHT22;1071;52.544;13.374;2023-04-07T07:38:19;8.70;77.80
2130;DHT22;1071;52.544;13.374;2023-04-07T07:40:46;8.70;76.30
2130;DHT22;1071;52.544;13.374;2023-04-07T07:43:22;8.80;74.50
2130;DHT22;1071;52.544;13.374;2023-04-07T07:45:51;8.90;73.60
2130;DHT22;1071;52.544;13.374;2023-04-07T07:48:25;9.00;71.70
2130;DHT22;1071;52.544;13.374;2023-04-07T07:50:57;9.10;70.50
2130;DHT22;1071;52.544;13.374;2023-04-07T07:53:28;9.20;70.50
2130;DHT22;1071;52.544;13.374;2023-04-07T07:55:56;9.20;70.50
2130;DHT22;1071;52.544;13.374;2023-04-07T07:58:23;9.30;70.10
2130;DHT22;1071;52.544;13.374;2023-04-07T08:00:52;9.30;69.10
2130;DHT22;1071;52.544;13.374;2023-04-07T08:03:20;9.30;68.00
2130;DHT22;1071;52.544;13.374;2023-04-07T08:05:48;9.30;66.30
2130;DHT22;1071;52.544;13.374;2023-04-07T08:08:15;9.40;65.60
2130;DHT22;1071;52.544;13.374;2023-04-07T08:10:43;9.40;64.90
2130;DHT22;1071;52.544;13.374;2023-04-07T08:13:10;9.40;63.90
2130;DHT22;1071;52.544;13.374;2023-04-07T08:16:02;9.40;62.50
2130;DHT22;1071;52.544;13.374;2023-04-07T08:18:29;9.50;62.80
2130;DHT22;1071;52.544;13.374;2023-04-07T08:20:56;9.50;62.80
2130;DHT22;1071;52.544;13.374;2023-04-07T08:23:24;9.50;61.50
2130;DHT22;1071;52.544;13.374;2023-04-07T08:25:52;9.60;61.80
2130;DHT22;1071;52.544;13.374;2023-04-07T08:28:19;9.60;61.80
2130;DHT22;1071;52.544;13.374;2023-04-07T08:30:47;9.60;62.30
2130;DHT22;1071;52.544;13.374;2023-04-07T08:33:15;9.60;61.20
2130;DHT22;1071;52.544;13.374;2023-04-07T08:35:42;9.60;61.20
2130;DHT22;1071;52.544;13.374;2023-04-07T08:38:10;9.70;61.70
2130;DHT22;1071;52.544;13.374;2023-04-07T08:40:37;9.80;62.20
2130;DHT22;1071;52.544;13.374;2023-04-07T08:43:08;9.80;62.00
2130;DHT22;1071;52.544;13.374;2023-04-07T08:46:03;9.90;61.50
2130;DHT22;1071;52.544;13.374;2023-04-07T08:48:43;9.90;60.60
2130;DHT22;1071;52.544;13.374;2023-04-07T08:51:13;10.00;58.80
2130;DHT22;1071;52.544;13.374;2023-04-07T08:53:42;10.00;59.00
2130;DHT22;1071;52.544;13.374;2023-04-07T08:56:15;10.00;58.80
2130;DHT22;1071;52.544;13.374;2023-04-07T08:58:43;10.10;59.10
2130;DHT22;1071;52.544;13.374;2023-04-07T09:01:11;10.10;59.10
2130;DHT22;1071;52.544;13.374;2023-04-07T09:03:42;10.10;58.50
2130;DHT22;1071;52.544;13.374;2023-04-07T09:06:10;10.10;58.60
2130;DHT22;1071;52.544;13.374;2023-04-07T09:08:37;10.10;56.50
2130;DHT22;1071;52.544;13.374;2023-04-07T09:11:36;10.00;56.50
2130;DHT22;1071;52.544;13.374;2023-04-07T09:14:06;10.00;55.60
2130;DHT22;1071;52.544;13.374;2023-04-07T09:16:35;9.90;55.90
2130;DHT22;1071;52.544;13.374;2023-04-07T09:19:04;9.90;55.70
2130;DHT22;1071;52.544;13.374;2023-04-07T09:21:47;9.80;55.30
2130;DHT22;1071;52.544;13.374;2023-04-07T09:24:23;9.80;55.70
2130;DHT22;1071;52.544;13.374;2023-04-07T09:26:52;9.70;56.50
2130;DHT22;1071;52.544;13.374;2023-04-07T09:29:44;9.70;56.90
2130;DHT22;1071;52.544;13.374;2023-04-07T09:32:38;9.70;57.10
2130;DHT22;1071;52.544;13.374;2023-04-07T09:35:12;9.70;57.10
2130;DHT22;1071;52.544;13.374;2023-04-07T09:37:43;9.60;56.90
2130;DHT22;1071;52.544;13.374;2023-04-07T09:40:25;9.60;57.00
2130;DHT22;1071;52.544;13.374;2023-04-07T09:42:52;9.50;56.60
2130;DHT22;1071;52.544;13.374;2023-04-07T09:45:23;9.50;56.80
2130;DHT22;1071;52.544;13.374;2023-04-07T09:47:52;9.50;57.20
2130;DHT22;1071;52.544;13.374;2023-04-07T09:50:31;9.50;58.10
2130;DHT22;1071;52.544;13.374;2023-04-07T09:53:00;9.40;59.40
2130;DHT22;1071;52.544;13.374;2023-04-07T09:55:28;9.40;60.60
2130;DHT22;1071;52.544;13.374;2023-04-07T09:57:58;9.40;61.20
2130;DHT22;1071;52.544;13.374;2023-04-07T10:00:29;9.50;61.30
2130;DHT22;1071;52.544;13.374;2023-04-07T10:02:57;9.40;61.60
2130;DHT22;1071;52.544;13.374;2023-04-07T10:05:44;9.50;61.90
2130;DHT22;1071;52.544;13.374;2023-04-07T10:08:11;9.50;62.00
2130;DHT22;1071;52.544;13.374;2023-04-07T10:10:41;9.60;62.10
2130;DHT22;1071;52.544;13.374;2023-04-07T10:13:09;9.60;61.80
2130;DHT22;1071;52.544;13.374;2023-04-07T10:15:39;9.70;61.40
2130;DHT22;1071;52.544;13.374;2023-04-07T10:18:25;9.70;61.10
2130;DHT22;1071;52.544;13.374;2023-04-07T10:20:56;9.70;60.80
2130;DHT22;1071;52.544;13.374;2023-04-07T10:23:35;9.80;60.80
2130;DHT22;1071;52.544;13.374;2023-04-07T10:26:05;9.80;61.00
2130;DHT22;1071;52.544;13.374;2023-04-07T10:28:33;9.70;61.10
2130;DHT22;1071;52.544;13.374;2023-04-07T10:31:03;9.80;61.70
2130;DHT22;1071;52.544;13.374;2023-04-07T10:33:48;9.80;61.90
2130;DHT22;1071;52.544;13.374;2023-04-07T10:36:17;9.80;62.30
2130;DHT22;1071;52.544;13.374;2023-04-07T10:39:19;9.80;62.60
2130;DHT22;1071;52.544;13.374;2023-04-07T10:41:49;9.90;63.50
2130;DHT22;1071;52.544;13.374;2023-04-07T10:44:44;9.90;63.90
2130;DHT22;1071;52.544;13.374;2023-04-07T10:47:14;9.80;64.70
2130;DHT22;1071;52.544;13.374;2023-04-07T10:50:13;9.80;65.20
2130;DHT22;1071;52.544;13.374;2023-04-07T10:52:43;9.90;66.60
2130;DHT22;1071;52.544;13.374;2023-04-07T10:55:32;9.80;67.30
2130;DHT22;1071;52.544;13.374;2023-04-07T10:58:19;9.90;68.00
2130;DHT22;1071;52.544;13.374;2023-04-07T11:01:31;9.90;70.00
2130;DHT22;1071;52.544;13.374;2023-04-07T11:04:00;9.90;73.50
2130;DHT22;1071;52.544;13.374;2023-04-07T11:06:29;9.90;76.40
2130;DHT22;1071;52.544;13.374;2023-04-07T11:08:58;9.90;79.00
2130;DHT22;1071;52.544;13.374;2023-04-07T11:11:36;9.90;80.50
2130;DHT22;1071;52.544;13.374;2023-04-07T11:14:05;9.80;82.20
2130;DHT22;1071;52.544;13.374;2023-04-07T11:16:37;9.80;83.30
2130;DHT22;1071;52.544;13.374;2023-04-07T11:19:07;9.80;85.60
2130;DHT22;1071;52.544;13.374;2023-04-07T11:21:38;9.80;86.40
2130;DHT22;1071;52.544;13.374;2023-04-07T11:24:08;9.80;89.40
2130;DHT22;1071;52.544;13.374;2023-04-07T11:26:39;9.70;90.10
2130;DHT22;1071;52.544;13.374;2023-04-07T11:29:07;9.70;91.00
2130;DHT22;1071;52.544;13.374;2023-04-07T11:31:38;9.70;91.70
2130;DHT22;1071;52.544;13.374;2023-04-07T11:34:05;9.70;92.10
2130;DHT22;1071;52.544;13.374;2023-04-07T11:36:35;9.80;92.50
2130;DHT22;1071;52.544;13.374;2023-04-07T11:39:03;9.70;93.10
2130;DHT22;1071;52.544;13.374;2023-04-07T11:41:32;9.70;93.40
2130;DHT22;1071;52.544;13.374;2023-04-07T11:44:05;9.70;94.60
2130;DHT22;1071;52.544;13.374;2023-04-07T11:46:33;9.70;95.40
2130;DHT22;1071;52.544;13.374;2023-04-07T11:49:11;9.70;96.70
2130;DHT22;1071;52.544;13.374;2023-04-07T11:51:46;9.70;97.40
2130;DHT22;1071;52.544;13.374;2023-04-07T11:54:40;9.70;98.70
2130;DHT22;1071;52.544;13.374;2023-04-07T11:57:09;9.60;99.70
2130;DHT22;1071;52.544;13.374;2023-04-07T11:59:38;9.60;99.90
2130;DHT22;1071;52.544;13.374;2023-04-07T12:02:05;9.60;99.90
2130;DHT22;1071;52.544;13.374;2023-04-07T12:04:33;9.60;99.90
2130;DHT22;1071;52.544;13.374;2023-04-07T12:07:12;9.60;99.90
2130;DHT22;1071;52.544;13.374;2023-04-07T12:09:39;9.60;99.90
2130;DHT22;1071;52.544;13.374;2023-04-07T12:12:09;9.60;99.90
2130;DHT22;1071;52.544;13.374;2023-04-07T12:14:36;9.60;99.90
2130;DHT22;1071;52.544;13.374;2023-04-07T12:17:04;9.50;99.90
2130;DHT22;1071;52.544;13.374;2023-04-07T12:19:33;9.50;99.90
2130;DHT22;1071;52.544;13.374;2023-04-07T12:22:03;9.50;99.90
2130;DHT22;1071;52.544;13.374;2023-04-07T12:24:31;9.50;99.90
2130;DHT22;1071;52.544;13.374;2023-04-07T12:26:58;9.40;99.90
2130;DHT22;1071;52.544;13.374;2023-04-07T12:29:27;9.40;99.90
2130;DHT22;1071;52.544;13.374;2023-04-07T12:31:55;9.30;99.90
2130;DHT22;1071;52.544;13.374;2023-04-07T12:34:24;9.30;99.90
2130;DHT22;1071;52.544;13.374;2023-04-07T12:37:05;9.30;99.90
2130;DHT22;1071;52.544;13.374;2023-04-07T12:39:32;9.30;99.90
2130;DHT22;1071;52.544;13.374;2023-04-07T12:42:00;9.30;99.90
2130;DHT22;1071;52.544;13.374;2023-04-07T12:44:29;9.30;99.90
2130;DHT22;1071;52.544;13.374;2023-04-07T12:46:58;9.20;99.90
2130;DHT22;1071;52.544;13.374;2023-04-07T12:49:25;9.20;99.90
2130;DHT22;1071;52.544;13.374;2023-04-07T12:51:55;9.20;99.90
2130;DHT22;1071;52.544;13.374;2023-04-07T12:54:23;9.20;99.90
2130;DHT22;1071;52.544;13.374;2023-04-07T12:56:53;9.10;99.90
2130;DHT22;1071;52.544;13.374;2023-04-07T12:59:21;9.10;99.90
2130;DHT22;1071;52.544;13.374;2023-04-07T13:01:50;9.10;99.90
2130;DHT22;1071;52.544;13.374;2023-04-07T13:04:17;9.20;99.90
2130;DHT22;1071;52.544;13.374;2023-04-07T13:06:44;9.20;99.90
2130;DHT22;1071;52.544;13.374;2023-04-07T13:09:12;9.20;99.90
2130;DHT22;1071;52.544;13.374;2023-04-07T13:11:40;9.20;99.90
2130;DHT22;1071;52.544;13.374;2023-04-07T13:14:07;9.20;99.90
2130;DHT22;1071;52.544;13.374;2023-04-07T13:16:34;9.30;99.90
2130;DHT22;1071;52.544;13.374;2023-04-07T13:19:04;9.30;99.90
2130;DHT22;1071;52.544;13.374;2023-04-07T13:21:34;9.40;99.90
2130;DHT22;1071;52.544;13.374;2023-04-07T13:24:24;9.40;99.90
2130;DHT22;1071;52.544;13.374;2023-04-07T13:26:51;9.40;99.90
2130;DHT22;1071;52.544;13.374;2023-04-07T13:29:19;9.50;99.90
2130;DHT22;1071;52.544;13.374;2023-04-07T13:31:59;9.50;99.90
2130;DHT22;1071;52.544;13.374;2023-04-07T13:34:43;9.50;99.90
2130;DHT22;1071;52.544;13.374;2023-04-07T13:37:14;9.40;99.90
2130;DHT22;1071;52.544;13.374;2023-04-07T13:39:46;9.50;99.90
2130;DHT22;1071;52.544;13.374;2023-04-07T13:42:31;9.50;99.90
2130;DHT22;1071;52.544;13.374;2023-04-07T13:45:02;9.40;99.90
2130;DHT22;1071;52.544;13.374;2023-04-07T13:47:29;9.40;99.90
2130;DHT22;1071;52.544;13.374;2023-04-07T13:50:01;9.40;99.90
2130;DHT22;1071;52.544;13.374;2023-04-07T13:52:29;9.40;99.90
2130;DHT22;1071;52.544;13.374;2023-04-07T13:55:00;9.40;99.90
2130;DHT22;1071;52.544;13.374;2023-04-07T13:57:30;9.40;99.90
2130;DHT22;1071;52.544;13.374;2023-04-07T14:00:00;9.40;99.90
2130;DHT22;1071;52.544;13.374;2023-04-07T14:02:28;9.40;99.90
2130;DHT22;1071;52.544;13.374;2023-04-07T14:04:56;9.40;99.90
2130;DHT22;1071;52.544;13.374;2023-04-07T14:07:28;9.40;99.90
2130;DHT22;1071;52.544;13.374;2023-04-07T14:09:55;9.30;99.90
2130;DHT22;1071;52.544;13.374;2023-04-07T14:13:55;9.30;99.90
2130;DHT22;1071;52.544;13.374;2023-04-07T14:15:59;9.30;99.90
2130;DHT22;1071;52.544;13.374;2023-04-07T14:18:26;9.30;99.90
2130;DHT22;1071;52.544;13.374;2023-04-07T14:20:54;9.40;99.90
2130;DHT22;1071;52.544;13.374;2023-04-07T14:23:22;9.30;99.90
2130;DHT22;1071;52.544;13.374;2023-04-07T14:25:50;9.30;99.90
2130;DHT22;1071;52.544;13.374;2023-04-07T14:28:17;9.30;99.90
2130;DHT22;1071;52.544;13.374;2023-04-07T14:30:50;9.20;99.90
2130;DHT22;1071;52.544;13.374;2023-04-07T14:33:20;9.30;99.90
2130;DHT22;1071;52.544;13.374;2023-04-07T14:36:18;9.30;99.90
2130;DHT22;1071;52.544;13.374;2023-04-07T14:38:47;9.30;99.90
2130;DHT22;1071;52.544;13.374;2023-04-07T14:41:15;9.30;99.90
2130;DHT22;1071;52.544;13.374;2023-04-07T14:43:42;9.30;99.90
2130;DHT22;1071;52.544;13.374;2023-04-07T14:46:09;9.30;99.90
2130;DHT22;1071;52.544;13.374;2023-04-07T14:48:39;9.40;99.90
2130;DHT22;1071;52.544;13.374;2023-04-07T14:51:10;9.40;99.90
2130;DHT22;1071;52.544;13.374;2023-04-07T14:53:41;9.40;99.90
2130;DHT22;1071;52.544;13.374;2023-04-07T14:56:09;9.40;99.90
2130;DHT22;1071;52.544;13.374;2023-04-07T14:58:37;9.40;99.90
2130;DHT22;1071;52.544;13.374;2023-04-07T15:01:05;9.30;99.90
2130;DHT22;1071;52.544;13.374;2023-04-07T15:03:35;9.30;99.90
2130;DHT22;1071;52.544;13.374;2023-04-07T15:06:06;9.30;99.90
2130;DHT22;1071;52.544;13.374;2023-04-07T15:08:33;9.30;99.90
2130;DHT22;1071;52.544;13.374;2023-04-07T15:11:03;9.20;99.90
2130;DHT22;1071;52.544;13.374;2023-04-07T15:13:31;9.20;99.90
2130;DHT22;1071;52.544;13.374;2023-04-07T15:16:08;9.20;99.90
2130;DHT22;1071;52.544;13.374;2023-04-07T15:18:37;9.20;99.90
2130;DHT22;1071;52.544;13.374;2023-04-07T15:21:07;9.20;99.90
2130;DHT22;1071;52.544;13.374;2023-04-07T15:23:38;9.10;99.90
2130;DHT22;1071;52.544;13.374;2023-04-07T15:26:07;9.20;99.90
2130;DHT22;1071;52.544;13.374;2023-04-07T15:28:35;9.20;99.90
2130;DHT22;1071;52.544;13.374;2023-04-07T15:31:20;9.20;99.90
2130;DHT22;1071;52.544;13.374;2023-04-07T15:33:47;9.20;99.90
2130;DHT22;1071;52.544;13.374;2023-04-07T15:36:15;9.10;99.90
2130;DHT22;1071;52.544;13.374;2023-04-07T15:38:43;9.10;99.90
2130;DHT22;1071;52.544;13.374;2023-04-07T15:41:13;9.00;99.90
2130;DHT22;1071;52.544;13.374;2023-04-07T15:43:47;9.10;99.90
2130;DHT22;1071;52.544;13.374;2023-04-07T15:46:15;9.10;99.90
2130;DHT22;1071;52.544;13.374;2023-04-07T15:48:43;9.00;99.90
2130;DHT22;1071;52.544;13.374;2023-04-07T15:51:18;9.00;99.90
2130;DHT22;1071;52.544;13.374;2023-04-07T15:53:45;9.00;99.90
2130;DHT22;1071;52.544;13.374;2023-04-07T15:56:15;9.00;99.90
2130;DHT22;1071;52.544;13.374;2023-04-07T15:58:44;9.00;99.90
2130;DHT22;1071;52.544;13.374;2023-04-07T16:01:24;9.00;99.90
2130;DHT22;1071;52.544;13.374;2023-04-07T16:03:53;9.00;99.90
2130;DHT22;1071;52.544;13.374;2023-04-07T16:06:26;9.00;99.90
2130;DHT22;1071;52.544;13.374;2023-04-07T16:08:56;9.00;99.90
2130;DHT22;1071;52.544;13.374;2023-04-07T16:11:25;9.00;99.90
2130;DHT22;1071;52.544;13.374;2023-04-07T16:13:55;9.00;99.90
2130;DHT22;1071;52.544;13.374;2023-04-07T16:16:23;9.10;99.90
2130;DHT22;1071;52.544;13.374;2023-04-07T16:18:55;9.10;99.90
2130;DHT22;1071;52.544;13.374;2023-04-07T16:21:22;9.10;99.90
2130;DHT22;1071;52.544;13.374;2023-04-07T16:24:01;9.10;99.90
2130;DHT22;1071;52.544;13.374;2023-04-07T16:26:49;9.10;99.90